sensor_id;sensor_type;location;lat;lon;timestamp;P1;durP1;ratioP1;P2;durP2;ratioP2
27313;SDS011;14800;48.174;9.798;2022-12-07T00:02:04;9.63;;;6.95;;
27313;SDS011;14800;48.174;9.798;2022-12-07T00:04:29;10.40;;;7.78;;
27313;SDS011;14800;48.174;9.798;2022-12-07T00:06:55;10.05;;;7.60;;
27313;SDS011;14800;48.174;9.798;2022-12-07T00:09:21;11.18;;;7.75;;
27313;SDS011;14800;48.174;9.798;2022-12-07T00:11:50;10.98;;;7.45;;
27313;SDS011;14800;48.174;9.798;2022-12-07T00:14:16;9.15;;;7.35;;
27313;SDS011;14800;48.174;9.798;2022-12-07T00:16:43;10.23;;;7.20;;
27313;SDS011;14800;48.174;9.798;2022-12-07T00:19:09;11.48;;;7.72;;
27313;SDS011;14800;48.174;9.798;2022-12-07T00:21:36;10.63;;;7.25;;
27313;SDS011;14800;48.174;9.798;2022-12-07T00:24:03;10.52;;;7.65;;
27313;SDS011;14800;48.174;9.798;2022-12-07T00:26:31;10.90;;;7.03;;
27313;SDS011;14800;48.174;9.798;2022-12-07T00:29:02;10.88;;;7.22;;
27313;SDS011;14800;48.174;9.798;2022-12-07T00:31:37;9.95;;;6.72;;
27313;SDS011;14800;48.174;9.798;2022-12-07T00:34:04;9.77;;;7.25;;
27313;SDS011;14800;48.174;9.798;2022-12-07T00:36:30;10.55;;;7.07;;
27313;SDS011;14800;48.174;9.798;2022-12-07T00:38:57;12.05;;;7.15;;
27313;SDS011;14800;48.174;9.798;2022-12-07T00:41:24;9.73;;;7.20;;
27313;SDS011;14800;48.174;9.798;2022-12-07T00:43:51;11.02;;;7.25;;
27313;SDS011;14800;48.174;9.798;2022-12-07T00:46:18;10.38;;;7.55;;
27313;SDS011;14800;48.174;9.798;2022-12-07T00:48:44;10.75;;;7.57;;
27313;SDS011;14800;48.174;9.798;2022-12-07T00:51:11;12.23;;;7.90;;
27313;SDS011;14800;48.174;9.798;2022-12-07T00:53:38;11.18;;;7.40;;
27313;SDS011;14800;48.174;9.798;2022-12-07T00:56:08;10.88;;;7.45;;
27313;SDS011;14800;48.174;9.798;2022-12-07T00:58:36;11.18;;;7.22;;
27313;SDS011;14800;48.174;9.798;2022-12-07T01:01:02;11.38;;;7.50;;
27313;SDS011;14800;48.174;9.798;2022-12-07T01:03:29;13.57;;;8.18;;
27313;SDS011;14800;48.174;9.798;2022-12-07T01:05:55;11.73;;;7.25;;
27313;SDS011;14800;48.174;9.798;2022-12-07T01:08:21;9.60;;;7.35;;
27313;SDS011;14800;48.174;9.798;2022-12-07T01:10:48;11.40;;;7.93;;
27313;SDS011;14800;48.174;9.798;2022-12-07T01:13:14;10.35;;;7.40;;
27313;SDS011;14800;48.174;9.798;2022-12-07T01:15:41;10.23;;;7.57;;
27313;SDS011;14800;48.174;9.798;2022-12-07T01:18:07;12.02;;;7.80;;
27313;SDS011;14800;48.174;9.798;2022-12-07T01:20:33;10.93;;;7.60;;
27313;SDS011;14800;48.174;9.798;2022-12-07T01:22:59;10.30;;;7.18;;
27313;SDS011;14800;48.174;9.798;2022-12-07T01:25:24;12.15;;;7.45;;
27313;SDS011;14800;48.174;9.798;2022-12-07T01:27:50;10.45;;;7.80;;
27313;SDS011;14800;48.174;9.798;2022-12-07T01:30:15;11.32;;;7.47;;
27313;SDS011;14800;48.174;9.798;2022-12-07T01:32:41;10.73;;;7.47;;
27313;SDS011;14800;48.174;9.798;2022-12-07T01:35:07;10.18;;;7.22;;
27313;SDS011;14800;48.174;9.798;2022-12-07T01:37:36;10.27;;;7.53;;
27313;SDS011;14800;48.174;9.798;2022-12-07T01:40:03;10.02;;;7.28;;
27313;SDS011;14800;48.174;9.798;2022-12-07T01:42:30;14.02;;;7.60;;
27313;SDS011;14800;48.174;9.798;2022-12-07T01:47:44;9.80;;;6.90;;
27313;SDS011;14800;48.174;9.798;2022-12-07T01:50:13;10.55;;;7.10;;
27313;SDS011;14800;48.174;9.798;2022-12-07T01:52:39;10.38;;;7.15;;
27313;SDS011;14800;48.174;9.798;2022-12-07T01:55:07;11.27;;;7.38;;
27313;SDS011;14800;48.174;9.798;2022-12-07T01:57:37;10.00;;;7.25;;
27313;SDS011;14800;48.174;9.798;2022-12-07T02:00:06;10.98;;;7.45;;
27313;SDS011;14800;48.174;9.798;2022-12-07T02:02:34;10.25;;;7.45;;
27313;SDS011;14800;48.174;9.798;2022-12-07T02:05:03;13.18;;;7.88;;
27313;SDS011;14800;48.174;9.798;2022-12-07T02:07:30;11.10;;;7.18;;
27313;SDS011;14800;48.174;9.798;2022-12-07T02:10:11;9.73;;;7.20;;
27313;SDS011;14800;48.174;9.798;2022-12-07T02:12:38;11.25;;;7.57;;
27313;SDS011;14800;48.174;9.798;2022-12-07T02:15:04;9.75;;;7.55;;
27313;SDS011;14800;48.174;9.798;2022-12-07T02:20:39;12.32;;;8.00;;
27313;SDS011;14800;48.174;9.798;2022-12-07T02:31:36;10.23;;;7.75;;
27313;SDS011;14800;48.174;9.798;2022-12-07T02:34:09;12.30;;;8.35;;
27313;SDS011;14800;48.174;9.798;2022-12-07T02:39:34;11.10;;;7.70;;
27313;SDS011;14800;48.174;9.798;2022-12-07T02:42:09;9.77;;;7.30;;
27313;SDS011;14800;48.174;9.798;2022-12-07T02:44:38;9.55;;;7.25;;
27313;SDS011;14800;48.174;9.798;2022-12-07T02:47:06;12.43;;;8.43;;
27313;SDS011;14800;48.174;9.798;2022-12-07T02:49:35;11.63;;;8.57;;
27313;SDS011;14800;48.174;9.798;2022-12-07T02:52:03;12.13;;;8.57;;
27313;SDS011;14800;48.174;9.798;2022-12-07T02:54:29;12.55;;;8.48;;
27313;SDS011;14800;48.174;9.798;2022-12-07T02:56:57;13.52;;;8.60;;
27313;SDS011;14800;48.174;9.798;2022-12-07T02:59:46;13.20;;;9.07;;
27313;SDS011;14800;48.174;9.798;2022-12-07T03:16:05;12.57;;;8.85;;
27313;SDS011;14800;48.174;9.798;2022-12-07T03:21:27;13.18;;;8.93;;
27313;SDS011;14800;48.174;9.798;2022-12-07T03:23:58;12.88;;;8.65;;
27313;SDS011;14800;48.174;9.798;2022-12-07T03:26:30;13.65;;;8.82;;
27313;SDS011;14800;48.174;9.798;2022-12-07T03:29:00;12.85;;;8.77;;
27313;SDS011;14800;48.174;9.798;2022-12-07T03:31:33;12.90;;;9.18;;
27313;SDS011;14800;48.174;9.798;2022-12-07T03:36:49;13.02;;;8.95;;
27313;SDS011;14800;48.174;9.798;2022-12-07T03:41:58;13.13;;;8.85;;
27313;SDS011;14800;48.174;9.798;2022-12-07T03:44:26;12.95;;;9.02;;
27313;SDS011;14800;48.174;9.798;2022-12-07T03:49:45;15.18;;;9.20;;
27313;SDS011;14800;48.174;9.798;2022-12-07T03:57:27;46.55;;;22.75;;
27313;SDS011;14800;48.174;9.798;2022-12-07T03:59:54;17.23;;;11.15;;
27313;SDS011;14800;48.174;9.798;2022-12-07T04:02:21;18.55;;;11.48;;
27313;SDS011;14800;48.174;9.798;2022-12-07T04:04:49;16.08;;;9.65;;
27313;SDS011;14800;48.174;9.798;2022-12-07T04:07:15;21.20;;;14.93;;
27313;SDS011;14800;48.174;9.798;2022-12-07T04:09:41;19.60;;;13.05;;
27313;SDS011;14800;48.174;9.798;2022-12-07T04:12:06;16.25;;;10.95;;
27313;SDS011;14800;48.174;9.798;2022-12-07T04:14:32;12.95;;;9.23;;
27313;SDS011;14800;48.174;9.798;2022-12-07T04:16:58;14.82;;;9.27;;
27313;SDS011;14800;48.174;9.798;2022-12-07T04:19:27;12.75;;;9.07;;
27313;SDS011;14800;48.174;9.798;2022-12-07T04:21:55;12.45;;;8.63;;
27313;SDS011;14800;48.174;9.798;2022-12-07T04:24:21;13.10;;;8.43;;
27313;SDS011;14800;48.174;9.798;2022-12-07T04:26:50;12.95;;;8.43;;
27313;SDS011;14800;48.174;9.798;2022-12-07T04:29:16;15.30;;;8.82;;
27313;SDS011;14800;48.174;9.798;2022-12-07T04:31:42;13.82;;;9.07;;
27313;SDS011;14800;48.174;9.798;2022-12-07T04:34:08;13.35;;;8.45;;
27313;SDS011;14800;48.174;9.798;2022-12-07T04:36:35;13.57;;;8.82;;
27313;SDS011;14800;48.174;9.798;2022-12-07T04:39:03;12.07;;;8.27;;
27313;SDS011;14800;48.174;9.798;2022-12-07T04:41:29;12.60;;;8.85;;
27313;SDS011;14800;48.174;9.798;2022-12-07T04:43:55;13.15;;;8.63;;
27313;SDS011;14800;48.174;9.798;2022-12-07T04:46:23;12.05;;;8.40;;
27313;SDS011;14800;48.174;9.798;2022-12-07T04:48:50;13.45;;;8.88;;
27313;SDS011;14800;48.174;9.798;2022-12-07T04:51:18;13.00;;;8.60;;
27313;SDS011;14800;48.174;9.798;2022-12-07T04:53:46;12.35;;;8.48;;
27313;SDS011;14800;48.174;9.798;2022-12-07T04:56:12;13.27;;;8.85;;
27313;SDS011;14800;48.174;9.798;2022-12-07T04:58:39;12.73;;;8.63;;
27313;SDS011;14800;48.174;9.798;2022-12-07T05:01:04;14.40;;;9.07;;
27313;SDS011;14800;48.174;9.798;2022-12-07T05:03:30;12.63;;;8.48;;
27313;SDS011;14800;48.174;9.798;2022-12-07T05:05:55;14.00;;;8.73;;
27313;SDS011;14800;48.174;9.798;2022-12-07T05:08:21;13.80;;;8.88;;
27313;SDS011;14800;48.174;9.798;2022-12-07T05:10:48;15.30;;;8.75;;
27313;SDS011;14800;48.174;9.798;2022-12-07T05:13:14;12.77;;;8.50;;
27313;SDS011;14800;48.174;9.798;2022-12-07T05:15:39;15.27;;;9.05;;
27313;SDS011;14800;48.174;9.798;2022-12-07T05:18:05;13.30;;;8.98;;
27313;SDS011;14800;48.174;9.798;2022-12-07T05:20:31;17.52;;;12.45;;
27313;SDS011;14800;48.174;9.798;2022-12-07T05:22:57;15.30;;;9.48;;
27313;SDS011;14800;48.174;9.798;2022-12-07T05:25:23;15.38;;;10.73;;
27313;SDS011;14800;48.174;9.798;2022-12-07T05:27:49;14.98;;;10.02;;
27313;SDS011;14800;48.174;9.798;2022-12-07T05:30:15;15.68;;;11.38;;
27313;SDS011;14800;48.174;9.798;2022-12-07T05:32:40;15.77;;;11.13;;
27313;SDS011;14800;48.174;9.798;2022-12-07T05:35:06;13.57;;;9.35;;
27313;SDS011;14800;48.174;9.798;2022-12-07T05:37:32;15.50;;;11.43;;
27313;SDS011;14800;48.174;9.798;2022-12-07T05:39:57;14.80;;;10.73;;
27313;SDS011;14800;48.174;9.798;2022-12-07T05:42:23;18.73;;;10.45;;
27313;SDS011;14800;48.174;9.798;2022-12-07T05:44:49;16.25;;;10.32;;
27313;SDS011;14800;48.174;9.798;2022-12-07T05:47:15;13.52;;;9.75;;
27313;SDS011;14800;48.174;9.798;2022-12-07T05:49:40;16.00;;;10.38;;
27313;SDS011;14800;48.174;9.798;2022-12-07T05:52:06;14.90;;;9.48;;
27313;SDS011;14800;48.174;9.798;2022-12-07T05:54:32;13.10;;;9.13;;
27313;SDS011;14800;48.174;9.798;2022-12-07T05:56:58;14.52;;;9.07;;
27313;SDS011;14800;48.174;9.798;2022-12-07T05:59:24;12.88;;;9.02;;
27313;SDS011;14800;48.174;9.798;2022-12-07T06:02:03;12.75;;;8.75;;
27313;SDS011;14800;48.174;9.798;2022-12-07T06:04:34;16.05;;;8.68;;
27313;SDS011;14800;48.174;9.798;2022-12-07T06:07:02;12.07;;;8.50;;
27313;SDS011;14800;48.174;9.798;2022-12-07T06:09:28;13.45;;;8.38;;
27313;SDS011;14800;48.174;9.798;2022-12-07T06:11:54;12.52;;;8.45;;
27313;SDS011;14800;48.174;9.798;2022-12-07T06:14:40;13.75;;;8.75;;
27313;SDS011;14800;48.174;9.798;2022-12-07T06:17:06;13.35;;;9.00;;
27313;SDS011;14800;48.174;9.798;2022-12-07T06:19:32;15.38;;;9.25;;
27313;SDS011;14800;48.174;9.798;2022-12-07T06:21:57;13.65;;;9.05;;
27313;SDS011;14800;48.174;9.798;2022-12-07T06:24:23;15.35;;;9.35;;
27313;SDS011;14800;48.174;9.798;2022-12-07T06:26:49;12.82;;;8.43;;
27313;SDS011;14800;48.174;9.798;2022-12-07T06:29:16;15.18;;;8.50;;
27313;SDS011;14800;48.174;9.798;2022-12-07T06:31:43;14.43;;;8.23;;
27313;SDS011;14800;48.174;9.798;2022-12-07T06:34:09;13.38;;;7.75;;
27313;SDS011;14800;48.174;9.798;2022-12-07T06:36:37;9.75;;;7.32;;
27313;SDS011;14800;48.174;9.798;2022-12-07T06:39:03;11.32;;;7.47;;
27313;SDS011;14800;48.174;9.798;2022-12-07T06:41:30;13.00;;;7.95;;
27313;SDS011;14800;48.174;9.798;2022-12-07T06:43:56;12.13;;;8.07;;
27313;SDS011;14800;48.174;9.798;2022-12-07T06:46:22;12.02;;;8.25;;
27313;SDS011;14800;48.174;9.798;2022-12-07T06:48:48;14.30;;;8.65;;
27313;SDS011;14800;48.174;9.798;2022-12-07T06:51:14;11.75;;;8.40;;
27313;SDS011;14800;48.174;9.798;2022-12-07T06:53:40;17.13;;;8.95;;
27313;SDS011;14800;48.174;9.798;2022-12-07T06:56:05;12.80;;;8.52;;
27313;SDS011;14800;48.174;9.798;2022-12-07T06:58:31;12.82;;;8.20;;
27313;SDS011;14800;48.174;9.798;2022-12-07T07:00:57;12.63;;;8.15;;
27313;SDS011;14800;48.174;9.798;2022-12-07T07:03:22;13.52;;;8.20;;
27313;SDS011;14800;48.174;9.798;2022-12-07T07:05:48;10.90;;;7.70;;
27313;SDS011;14800;48.174;9.798;2022-12-07T07:08:14;13.60;;;8.25;;
27313;SDS011;14800;48.174;9.798;2022-12-07T07:10:40;12.30;;;8.05;;
27313;SDS011;14800;48.174;9.798;2022-12-07T07:13:06;14.70;;;8.45;;
27313;SDS011;14800;48.174;9.798;2022-12-07T07:15:32;12.82;;;8.05;;
27313;SDS011;14800;48.174;9.798;2022-12-07T07:17:58;14.43;;;8.73;;
27313;SDS011;14800;48.174;9.798;2022-12-07T07:20:25;18.20;;;8.68;;
27313;SDS011;14800;48.174;9.798;2022-12-07T07:22:50;11.45;;;8.30;;
27313;SDS011;14800;48.174;9.798;2022-12-07T07:25:19;15.00;;;8.82;;
27313;SDS011;14800;48.174;9.798;2022-12-07T07:27:45;16.15;;;8.70;;
27313;SDS011;14800;48.174;9.798;2022-12-07T07:30:10;17.38;;;9.27;;
27313;SDS011;14800;48.174;9.798;2022-12-07T07:32:36;12.15;;;8.18;;
27313;SDS011;14800;48.174;9.798;2022-12-07T07:35:02;13.55;;;8.35;;
27313;SDS011;14800;48.174;9.798;2022-12-07T07:37:28;14.73;;;8.85;;
27313;SDS011;14800;48.174;9.798;2022-12-07T07:39:54;14.07;;;8.38;;
27313;SDS011;14800;48.174;9.798;2022-12-07T07:42:19;12.23;;;8.65;;
27313;SDS011;14800;48.174;9.798;2022-12-07T07:44:45;16.35;;;8.93;;
27313;SDS011;14800;48.174;9.798;2022-12-07T07:47:10;18.60;;;9.20;;
27313;SDS011;14800;48.174;9.798;2022-12-07T07:49:36;13.43;;;8.93;;
27313;SDS011;14800;48.174;9.798;2022-12-07T07:52:02;13.60;;;8.85;;
27313;SDS011;14800;48.174;9.798;2022-12-07T07:54:27;15.75;;;8.82;;
27313;SDS011;14800;48.174;9.798;2022-12-07T07:56:53;14.13;;;9.05;;
27313;SDS011;14800;48.174;9.798;2022-12-07T07:59:19;13.38;;;9.10;;
27313;SDS011;14800;48.174;9.798;2022-12-07T08:01:44;14.02;;;9.20;;
27313;SDS011;14800;48.174;9.798;2022-12-07T08:04:10;14.52;;;9.20;;
27313;SDS011;14800;48.174;9.798;2022-12-07T08:06:35;12.98;;;8.70;;
27313;SDS011;14800;48.174;9.798;2022-12-07T08:09:01;10.98;;;7.95;;
27313;SDS011;14800;48.174;9.798;2022-12-07T08:11:27;10.38;;;7.75;;
27313;SDS011;14800;48.174;9.798;2022-12-07T08:13:53;13.32;;;8.40;;
27313;SDS011;14800;48.174;9.798;2022-12-07T08:16:19;11.98;;;8.60;;
27313;SDS011;14800;48.174;9.798;2022-12-07T08:18:44;12.77;;;7.88;;
27313;SDS011;14800;48.174;9.798;2022-12-07T08:21:11;12.68;;;8.90;;
27313;SDS011;14800;48.174;9.798;2022-12-07T08:23:38;12.45;;;8.52;;
27313;SDS011;14800;48.174;9.798;2022-12-07T08:26:05;13.82;;;9.00;;
27313;SDS011;14800;48.174;9.798;2022-12-07T08:28:32;12.10;;;8.60;;
27313;SDS011;14800;48.174;9.798;2022-12-07T08:30:59;15.55;;;8.93;;
27313;SDS011;14800;48.174;9.798;2022-12-07T08:33:26;13.10;;;8.73;;
27313;SDS011;14800;48.174;9.798;2022-12-07T08:35:52;14.45;;;8.80;;
27313;SDS011;14800;48.174;9.798;2022-12-07T08:38:18;11.57;;;8.68;;
27313;SDS011;14800;48.174;9.798;2022-12-07T08:40:43;12.30;;;8.40;;
27313;SDS011;14800;48.174;9.798;2022-12-07T08:43:09;14.65;;;8.85;;
27313;SDS011;14800;48.174;9.798;2022-12-07T08:45:34;13.77;;;8.73;;
27313;SDS011;14800;48.174;9.798;2022-12-07T08:48:08;13.98;;;8.27;;
27313;SDS011;14800;48.174;9.798;2022-12-07T08:50:37;12.80;;;7.80;;
27313;SDS011;14800;48.174;9.798;2022-12-07T08:53:04;12.98;;;8.23;;
27313;SDS011;14800;48.174;9.798;2022-12-07T08:55:31;11.38;;;8.18;;
27313;SDS011;14800;48.174;9.798;2022-12-07T08:57:58;11.38;;;7.95;;
27313;SDS011;14800;48.174;9.798;2022-12-07T09:00:25;10.90;;;8.00;;
27313;SDS011;14800;48.174;9.798;2022-12-07T09:02:51;12.00;;;8.27;;
27313;SDS011;14800;48.174;9.798;2022-12-07T09:05:18;12.52;;;7.80;;
27313;SDS011;14800;48.174;9.798;2022-12-07T09:07:44;10.63;;;8.02;;
27313;SDS011;14800;48.174;9.798;2022-12-07T09:10:14;11.73;;;7.55;;
27313;SDS011;14800;48.174;9.798;2022-12-07T09:12:40;13.77;;;8.38;;
27313;SDS011;14800;48.174;9.798;2022-12-07T09:15:06;12.48;;;7.93;;
27313;SDS011;14800;48.174;9.798;2022-12-07T09:17:33;11.80;;;8.05;;
27313;SDS011;14800;48.174;9.798;2022-12-07T09:19:59;18.08;;;8.88;;
27313;SDS011;14800;48.174;9.798;2022-12-07T09:22:28;11.85;;;8.35;;
27313;SDS011;14800;48.174;9.798;2022-12-07T09:24:55;13.98;;;8.18;;
27313;SDS011;14800;48.174;9.798;2022-12-07T09:27:23;12.18;;;8.15;;
27313;SDS011;14800;48.174;9.798;2022-12-07T09:29:49;11.68;;;7.88;;
27313;SDS011;14800;48.174;9.798;2022-12-07T09:32:15;11.75;;;7.78;;
27313;SDS011;14800;48.174;9.798;2022-12-07T09:34:41;10.63;;;7.38;;
27313;SDS011;14800;48.174;9.798;2022-12-07T09:37:06;10.57;;;7.50;;
27313;SDS011;14800;48.174;9.798;2022-12-07T09:39:32;10.55;;;7.82;;
27313;SDS011;14800;48.174;9.798;2022-12-07T09:41:58;10.20;;;7.13;;
27313;SDS011;14800;48.174;9.798;2022-12-07T09:44:28;12.45;;;7.65;;
27313;SDS011;14800;48.174;9.798;2022-12-07T09:46:54;11.00;;;7.40;;
27313;SDS011;14800;48.174;9.798;2022-12-07T09:49:22;10.68;;;6.80;;
27313;SDS011;14800;48.174;9.798;2022-12-07T09:52:17;9.82;;;7.13;;
27313;SDS011;14800;48.174;9.798;2022-12-07T09:54:51;7.53;;;5.90;;
27313;SDS011;14800;48.174;9.798;2022-12-07T09:57:17;7.78;;;5.57;;
27313;SDS011;14800;48.174;9.798;2022-12-07T09:59:50;10.25;;;6.68;;
27313;SDS011;14800;48.174;9.798;2022-12-07T10:02:36;8.98;;;5.85;;
27313;SDS011;14800;48.174;9.798;2022-12-07T10:05:03;9.75;;;5.78;;
27313;SDS011;14800;48.174;9.798;2022-12-07T10:07:30;11.82;;;6.55;;
27313;SDS011;14800;48.174;9.798;2022-12-07T10:09:56;7.88;;;5.63;;
27313;SDS011;14800;48.174;9.798;2022-12-07T10:12:22;9.13;;;5.75;;
27313;SDS011;14800;48.174;9.798;2022-12-07T10:14:55;6.10;;;4.57;;
27313;SDS011;14800;48.174;9.798;2022-12-07T10:17:57;5.47;;;4.28;;
27313;SDS011;14800;48.174;9.798;2022-12-07T10:20:25;5.63;;;3.67;;
27313;SDS011;14800;48.174;9.798;2022-12-07T10:25:23;7.60;;;3.88;;
27313;SDS011;14800;48.174;9.798;2022-12-07T10:31:02;4.60;;;3.88;;
27313;SDS011;14800;48.174;9.798;2022-12-07T10:33:53;4.95;;;4.28;;
27313;SDS011;14800;48.174;9.798;2022-12-07T10:39:02;6.82;;;4.13;;
27313;SDS011;14800;48.174;9.798;2022-12-07T10:41:28;5.70;;;3.92;;
27313;SDS011;14800;48.174;9.798;2022-12-07T10:43:55;5.68;;;3.85;;
27313;SDS011;14800;48.174;9.798;2022-12-07T10:46:26;4.57;;;3.95;;
27313;SDS011;14800;48.174;9.798;2022-12-07T10:52:21;4.55;;;3.90;;
27313;SDS011;14800;48.174;9.798;2022-12-07T10:55:22;5.85;;;4.45;;
27313;SDS011;14800;48.174;9.798;2022-12-07T10:58:15;5.18;;;4.30;;
27313;SDS011;14800;48.174;9.798;2022-12-07T11:14:04;5.95;;;4.82;;
27313;SDS011;14800;48.174;9.798;2022-12-07T11:36:30;5.82;;;4.63;;
27313;SDS011;14800;48.174;9.798;2022-12-07T11:39:04;6.28;;;4.78;;
27313;SDS011;14800;48.174;9.798;2022-12-07T11:41:55;6.80;;;5.30;;
27313;SDS011;14800;48.174;9.798;2022-12-07T11:47:20;7.03;;;4.65;;
27313;SDS011;14800;48.174;9.798;2022-12-07T11:58:17;5.63;;;4.53;;
27313;SDS011;14800;48.174;9.798;2022-12-07T12:00:49;5.85;;;4.57;;
27313;SDS011;14800;48.174;9.798;2022-12-07T12:03:22;9.45;;;5.10;;
27313;SDS011;14800;48.174;9.798;2022-12-07T12:05:56;6.75;;;5.03;;
27313;SDS011;14800;48.174;9.798;2022-12-07T12:20:04;6.78;;;4.78;;
27313;SDS011;14800;48.174;9.798;2022-12-07T12:33:30;7.18;;;4.75;;
27313;SDS011;14800;48.174;9.798;2022-12-07T12:36:58;5.20;;;4.50;;
27313;SDS011;14800;48.174;9.798;2022-12-07T12:47:00;6.90;;;4.93;;
27313;SDS011;14800;48.174;9.798;2022-12-07T12:49:32;5.60;;;5.00;;
27313;SDS011;14800;48.174;9.798;2022-12-07T12:57:29;5.70;;;4.43;;
27313;SDS011;14800;48.174;9.798;2022-12-07T12:59:59;6.35;;;4.85;;
27313;SDS011;14800;48.174;9.798;2022-12-07T13:02:28;6.57;;;4.88;;
27313;SDS011;14800;48.174;9.798;2022-12-07T13:26:39;5.53;;;4.65;;
27313;SDS011;14800;48.174;9.798;2022-12-07T13:29:11;5.53;;;4.53;;
27313;SDS011;14800;48.174;9.798;2022-12-07T13:39:49;8.00;;;4.75;;
27313;SDS011;14800;48.174;9.798;2022-12-07T13:42:27;11.35;;;5.38;;
27313;SDS011;14800;48.174;9.798;2022-12-07T13:44:55;7.60;;;4.93;;
27313;SDS011;14800;48.174;9.798;2022-12-07T13:47:32;7.53;;;5.00;;
27313;SDS011;14800;48.174;9.798;2022-12-07T13:50:20;8.27;;;5.70;;
27313;SDS011;14800;48.174;9.798;2022-12-07T13:52:59;7.20;;;5.50;;
27313;SDS011;14800;48.174;9.798;2022-12-07T13:55:26;9.48;;;5.20;;
27313;SDS011;14800;48.174;9.798;2022-12-07T13:57:54;5.88;;;5.07;;
27313;SDS011;14800;48.174;9.798;2022-12-07T14:00:24;7.13;;;5.45;;
27313;SDS011;14800;48.174;9.798;2022-12-07T14:05:31;8.40;;;5.55;;
27313;SDS011;14800;48.174;9.798;2022-12-07T14:08:03;6.53;;;5.30;;
27313;SDS011;14800;48.174;9.798;2022-12-07T14:10:31;7.38;;;5.32;;
27313;SDS011;14800;48.174;9.798;2022-12-07T14:13:02;8.20;;;5.88;;
27313;SDS011;14800;48.174;9.798;2022-12-07T14:15:49;8.30;;;6.20;;
27313;SDS011;14800;48.174;9.798;2022-12-07T14:18:26;7.55;;;5.78;;
27313;SDS011;14800;48.174;9.798;2022-12-07T14:23:40;7.88;;;5.60;;
27313;SDS011;14800;48.174;9.798;2022-12-07T14:28:44;6.80;;;5.25;;
27313;SDS011;14800;48.174;9.798;2022-12-07T14:31:11;7.68;;;5.50;;
27313;SDS011;14800;48.174;9.798;2022-12-07T14:33:42;9.88;;;6.03;;
27313;SDS011;14800;48.174;9.798;2022-12-07T14:36:11;8.25;;;5.30;;
27313;SDS011;14800;48.174;9.798;2022-12-07T14:38:38;15.07;;;5.88;;
27313;SDS011;14800;48.174;9.798;2022-12-07T14:41:04;10.63;;;6.43;;
27313;SDS011;14800;48.174;9.798;2022-12-07T14:43:55;9.32;;;5.93;;
27313;SDS011;14800;48.174;9.798;2022-12-07T14:46:21;7.40;;;5.63;;
27313;SDS011;14800;48.174;9.798;2022-12-07T14:48:47;20.33;;;12.68;;
27313;SDS011;14800;48.174;9.798;2022-12-07T14:51:13;19.83;;;15.05;;
27313;SDS011;14800;48.174;9.798;2022-12-07T14:53:43;9.45;;;7.70;;
27313;SDS011;14800;48.174;9.798;2022-12-07T14:56:13;9.88;;;7.25;;
27313;SDS011;14800;48.174;9.798;2022-12-07T14:58:39;10.65;;;6.53;;
27313;SDS011;14800;48.174;9.798;2022-12-07T15:01:06;8.30;;;6.18;;
27313;SDS011;14800;48.174;9.798;2022-12-07T15:03:31;8.30;;;5.90;;
27313;SDS011;14800;48.174;9.798;2022-12-07T15:05:59;20.88;;;16.55;;
27313;SDS011;14800;48.174;9.798;2022-12-07T15:08:25;9.85;;;7.82;;
27313;SDS011;14800;48.174;9.798;2022-12-07T15:10:51;13.55;;;8.90;;
27313;SDS011;14800;48.174;9.798;2022-12-07T15:13:17;9.88;;;7.50;;
27313;SDS011;14800;48.174;9.798;2022-12-07T15:16:01;9.57;;;6.65;;
27313;SDS011;14800;48.174;9.798;2022-12-07T15:18:27;8.10;;;5.68;;
27313;SDS011;14800;48.174;9.798;2022-12-07T15:20:52;12.07;;;6.38;;
27313;SDS011;14800;48.174;9.798;2022-12-07T15:23:18;9.50;;;7.25;;
27313;SDS011;14800;48.174;9.798;2022-12-07T15:25:44;8.38;;;6.43;;
27313;SDS011;14800;48.174;9.798;2022-12-07T15:28:11;9.05;;;6.72;;
27313;SDS011;14800;48.174;9.798;2022-12-07T15:30:37;9.73;;;6.88;;
27313;SDS011;14800;48.174;9.798;2022-12-07T15:33:04;12.82;;;7.10;;
27313;SDS011;14800;48.174;9.798;2022-12-07T15:35:29;12.32;;;7.10;;
27313;SDS011;14800;48.174;9.798;2022-12-07T15:37:55;8.77;;;6.22;;
27313;SDS011;14800;48.174;9.798;2022-12-07T15:40:20;7.75;;;5.72;;
27313;SDS011;14800;48.174;9.798;2022-12-07T15:42:46;9.18;;;6.03;;
27313;SDS011;14800;48.174;9.798;2022-12-07T15:45:12;9.98;;;6.85;;
27313;SDS011;14800;48.174;9.798;2022-12-07T15:47:42;22.77;;;10.15;;
27313;SDS011;14800;48.174;9.798;2022-12-07T15:50:10;19.42;;;9.20;;
27313;SDS011;14800;48.174;9.798;2022-12-07T15:52:38;18.08;;;9.13;;
27313;SDS011;14800;48.174;9.798;2022-12-07T15:55:04;15.80;;;9.07;;
27313;SDS011;14800;48.174;9.798;2022-12-07T15:57:31;19.17;;;9.10;;
27313;SDS011;14800;48.174;9.798;2022-12-07T15:59:57;17.38;;;8.88;;
27313;SDS011;14800;48.174;9.798;2022-12-07T16:02:24;23.67;;;10.13;;
27313;SDS011;14800;48.174;9.798;2022-12-07T16:04:50;20.65;;;11.18;;
27313;SDS011;14800;48.174;9.798;2022-12-07T16:07:17;15.32;;;8.32;;
27313;SDS011;14800;48.174;9.798;2022-12-07T16:09:43;13.30;;;8.38;;
27313;SDS011;14800;48.174;9.798;2022-12-07T16:12:10;14.48;;;8.10;;
27313;SDS011;14800;48.174;9.798;2022-12-07T16:14:37;13.27;;;9.35;;
27313;SDS011;14800;48.174;9.798;2022-12-07T16:17:03;18.80;;;9.68;;
27313;SDS011;14800;48.174;9.798;2022-12-07T16:19:29;13.50;;;8.80;;
27313;SDS011;14800;48.174;9.798;2022-12-07T16:21:56;15.77;;;9.02;;
27313;SDS011;14800;48.174;9.798;2022-12-07T16:24:22;14.55;;;8.95;;
27313;SDS011;14800;48.174;9.798;2022-12-07T16:26:47;15.63;;;9.10;;
27313;SDS011;14800;48.174;9.798;2022-12-07T16:29:13;17.73;;;8.98;;
27313;SDS011;14800;48.174;9.798;2022-12-07T16:31:39;15.10;;;8.88;;
27313;SDS011;14800;48.174;9.798;2022-12-07T16:34:05;13.13;;;9.10;;
27313;SDS011;14800;48.174;9.798;2022-12-07T16:36:31;14.30;;;9.10;;
27313;SDS011;14800;48.174;9.798;2022-12-07T16:38:58;17.10;;;11.48;;
27313;SDS011;14800;48.174;9.798;2022-12-07T16:41:24;20.23;;;12.70;;
27313;SDS011;14800;48.174;9.798;2022-12-07T16:43:50;15.40;;;11.15;;
27313;SDS011;14800;48.174;9.798;2022-12-07T16:46:18;20.17;;;12.25;;
27313;SDS011;14800;48.174;9.798;2022-12-07T16:48:44;16.92;;;11.20;;
27313;SDS011;14800;48.174;9.798;2022-12-07T16:51:10;16.55;;;10.10;;
27313;SDS011;14800;48.174;9.798;2022-12-07T16:53:40;14.85;;;9.60;;
27313;SDS011;14800;48.174;9.798;2022-12-07T16:56:11;15.60;;;10.07;;
27313;SDS011;14800;48.174;9.798;2022-12-07T16:58:37;18.13;;;10.02;;
27313;SDS011;14800;48.174;9.798;2022-12-07T17:01:13;14.65;;;8.88;;
27313;SDS011;14800;48.174;9.798;2022-12-07T17:03:40;18.58;;;9.68;;
27313;SDS011;14800;48.174;9.798;2022-12-07T17:06:19;15.75;;;9.35;;
27313;SDS011;14800;48.174;9.798;2022-12-07T17:08:46;17.70;;;10.07;;
27313;SDS011;14800;48.174;9.798;2022-12-07T17:11:14;19.27;;;10.43;;
27313;SDS011;14800;48.174;9.798;2022-12-07T17:13:44;21.38;;;12.40;;
27313;SDS011;14800;48.174;9.798;2022-12-07T17:16:28;21.30;;;11.98;;
27313;SDS011;14800;48.174;9.798;2022-12-07T17:18:54;19.10;;;11.65;;
27313;SDS011;14800;48.174;9.798;2022-12-07T17:21:20;17.30;;;11.20;;
27313;SDS011;14800;48.174;9.798;2022-12-07T17:23:47;16.45;;;10.27;;
27313;SDS011;14800;48.174;9.798;2022-12-07T17:26:17;17.58;;;10.18;;
27313;SDS011;14800;48.174;9.798;2022-12-07T17:28:44;17.02;;;10.50;;
27313;SDS011;14800;48.174;9.798;2022-12-07T17:31:12;18.75;;;10.85;;
27313;SDS011;14800;48.174;9.798;2022-12-07T17:33:38;21.80;;;11.98;;
27313;SDS011;14800;48.174;9.798;2022-12-07T17:38:40;18.58;;;11.63;;
27313;SDS011;14800;48.174;9.798;2022-12-07T17:44:03;19.02;;;13.48;;
27313;SDS011;14800;48.174;9.798;2022-12-07T17:46:30;23.17;;;14.70;;